Time;durP1;ratioP1;P1;durP2;ratioP2;P2;SDS_P1;SDS_P2;PMS_P1;PMS_P2;Temp;Humidity;BMP_temperature;BMP_pressure;BME280_temperature;BME280_humidity;BME280_pressure;Samples;Min_cycle;Max_cycle;Signal;HPM_P1;HPM_P2
2023/05/05 00:03:17;;;;;;;3.37;2.73;;;;;;;16.27;35.84;98047.81;8381102;28;20304;-68
2023/05/05 00:07:19;;;;;;;4.00;3.10;;;;;;;16.34;36.48;98044.72;8380215;28;20502;-68
2023/05/05 00:11:27;;;;;;;3.50;3.03;;;;;;;16.36;36.80;98044.63;8380613;28;20229;-68
2023/05/05 00:15:30;;;;;;;3.13;2.90;;;;;;;16.13;36.58;98041.75;8380580;28;20252;-68
2023/05/05 00:19:32;;;;;;;3.50;3.20;;;;;;;16.27;36.60;98037.38;8380248;28;20229;-68
2023/05/05 00:23:35;;;;;;;4.93;2.90;;;;;;;16.28;36.09;98031.19;8379960;28;20237;-68
2023/05/05 00:27:39;;;;;;;4.27;3.30;;;;;;;16.31;36.69;98041.47;8380135;28;20241;-69
2023/05/05 00:31:42;;;;;;;6.37;3.60;;;;;;;16.25;36.11;98034.03;8380098;28;20225;-68
2023/05/05 00:35:47;;;;;;;5.83;3.77;;;;;;;15.90;36.61;98040.63;8380382;28;20362;-68
2023/05/05 00:39:49;;;;;;;4.33;3.60;;;;;;;16.20;35.88;98032.56;8380305;28;20221;-68
2023/05/05 00:43:54;;;;;;;3.53;3.23;;;;;;;16.18;36.82;98036.19;8380376;28;20240;-68
2023/05/05 00:47:59;;;;;;;4.70;3.70;;;;;;;16.17;36.20;98024.91;8380086;28;20239;-68
2023/05/05 00:52:05;;;;;;;4.40;3.37;;;;;;;16.03;36.53;98015.38;8380254;28;20236;-68
2023/05/05 00:56:08;;;;;;;3.67;3.03;;;;;;;16.00;36.40;97986.84;8379782;28;20565;-68
2023/05/05 01:00:13;;;;;;;6.47;3.30;;;;;;;15.88;36.42;97992.91;8380146;28;20427;-68
2023/05/05 01:04:16;;;;;;;6.30;3.47;;;;;;;15.70;36.97;98018.38;8379714;28;20248;-67
2023/05/05 01:08:29;;;;;;;3.67;3.10;;;;;;;15.67;37.17;98023.81;8379010;28;20229;-68
2023/05/05 01:12:38;;;;;;;6.53;3.50;;;;;;;15.99;37.17;98013.06;8379207;28;20230;-68
2023/05/05 01:16:52;;;;;;;4.87;2.80;;;;;;;15.80;36.88;98010.81;8378966;28;20224;-68
2023/05/05 01:20:59;;;;;;;5.57;2.93;;;;;;;15.79;37.26;97985.66;8379048;28;20237;-68
2023/05/05 01:25:30;;;;;;;5.57;3.33;;;;;;;15.86;37.30;98006.97;8378837;28;20229;-68
2023/05/05 01:29:51;;;;;;;3.30;3.00;;;;;;;15.70;37.76;98001.88;8378493;28;20240;-68
2023/05/05 01:34:00;;;;;;;3.97;3.00;;;;;;;15.67;37.26;97984.66;8378775;28;20236;-68
2023/05/05 01:38:06;;;;;;;3.00;2.70;;;;;;;15.80;37.33;98001.22;8377729;28;20339;-68
2023/05/05 01:42:12;;;;;;;4.07;3.27;;;;;;;15.74;38.50;98004.22;8378323;28;20429;-67
2023/05/05 01:46:16;;;;;;;3.17;2.87;;;;;;;15.74;38.09;98004.22;8377800;28;20229;-68
2023/05/05 01:50:24;;;;;;;4.13;3.40;;;;;;;15.56;37.95;97958.41;8377611;28;20509;-68
2023/05/05 01:54:27;;;;;;;4.43;3.20;;;;;;;15.50;38.77;97957.03;8377594;28;20231;-68
2023/05/05 01:58:34;;;;;;;4.77;3.20;;;;;;;15.66;38.11;98005.63;8377650;28;20272;-67
2023/05/05 02:02:38;;;;;;;4.23;3.20;;;;;;;15.64;38.10;97996.13;8377200;28;20298;-68
2023/05/05 02:06:50;;;;;;;3.50;3.20;;;;;;;15.64;38.27;98011.78;8376673;28;20477;-68
2023/05/05 02:10:53;;;;;;;3.70;3.33;;;;;;;15.43;38.95;98008.75;8377305;28;20227;-68
2023/05/05 02:14:59;;;;;;;4.10;3.60;;;;;;;15.53;38.31;98009.00;8376940;28;20228;-68
2023/05/05 02:19:04;;;;;;;6.87;3.80;;;;;;;15.64;38.34;98006.56;8376989;28;20299;-68
2023/05/05 02:23:08;;;;;;;5.77;3.80;;;;;;;15.61;38.89;98008.53;8376903;28;20232;-68
2023/05/05 02:27:11;;;;;;;6.10;3.57;;;;;;;15.51;38.36;97997.00;8376828;28;20228;-67
2023/05/05 02:31:15;;;;;;;4.90;3.60;;;;;;;15.52;38.86;97999.53;8376280;28;20516;-68
2023/05/05 02:35:21;;;;;;;3.63;3.33;;;;;;;15.55;38.81;98004.53;8376053;28;20332;-69
2023/05/05 02:39:31;;;;;;;4.20;3.57;;;;;;;15.43;39.53;98000.09;8376437;28;20233;-68
2023/05/05 02:43:35;;;;;;;5.97;3.70;;;;;;;15.43;38.86;97998.31;8376545;28;20240;-68
2023/05/05 02:47:39;;;;;;;4.50;3.97;;;;;;;15.28;39.05;98001.91;8377021;28;20512;-68
2023/05/05 02:51:42;;;;;;;4.70;3.13;;;;;;;15.43;38.81;97987.88;8382644;28;20221;-68
2023/05/05 02:55:51;;;;;;;3.30;2.93;;;;;;;15.52;38.84;97989.09;8383132;28;20238;-68
2023/05/05 02:59:59;;;;;;;6.37;3.57;;;;;;;15.28;39.51;97967.16;8383063;28;20224;-67
2023/05/05 03:04:07;;;;;;;4.93;3.60;;;;;;;15.41;39.86;97981.94;8382401;28;20563;-68
2023/05/05 03:08:13;;;;;;;3.50;3.20;;;;;;;15.56;39.35;97992.34;8382359;28;20535;-68
2023/05/05 03:12:21;;;;;;;4.33;3.63;;;;;;;15.37;39.12;97988.28;8382423;28;20228;-68
2023/05/05 03:16:24;;;;;;;4.10;3.70;;;;;;;14.99;40.23;97981.09;8381970;28;20236;-68
2023/05/05 03:20:30;;;;;;;6.17;3.63;;;;;;;15.31;39.81;97985.25;8381938;28;20251;-68
2023/05/05 03:24:33;;;;;;;4.03;3.43;;;;;;;15.24;39.78;97982.16;8381679;28;20331;-67
2023/05/05 03:28:37;;;;;;;5.23;3.67;;;;;;;15.34;40.05;97990.25;8381292;28;20421;-68
2023/05/05 03:32:40;;;;;;;4.57;4.00;;;;;;;15.21;39.50;97980.59;8381522;28;20239;-68
2023/05/05 03:36:43;;;;;;;4.63;4.03;;;;;;;15.19;39.35;97976.41;8381741;28;20247;-68
2023/05/05 03:40:45;;;;;;;5.40;4.13;;;;;;;15.20;39.24;97988.53;8380935;28;20228;-68
2023/05/05 03:44:52;;;;;;;4.53;3.80;;;;;;;14.82;39.89;97960.44;8381110;28;20232;-68
2023/05/05 03:48:55;;;;;;;6.87;4.00;;;;;;;15.17;39.65;97991.31;8381063;28;20476;-68
2023/05/05 03:52:58;;;;;;;4.13;3.70;;;;;;;15.18;40.49;97991.22;8380301;28;20337;-68
2023/05/05 03:57:01;;;;;;;6.13;3.93;;;;;;;15.16;40.44;97987.03;8380469;28;20531;-68
2023/05/05 04:01:05;;;;;;;6.20;4.17;;;;;;;15.20;39.94;97999.78;8380414;28;20224;-68
2023/05/05 04:05:09;;;;;;;4.50;4.03;;;;;;;15.33;39.97;97999.03;8380386;28;20252;-68
2023/05/05 04:09:12;;;;;;;5.27;4.13;;;;;;;15.36;40.04;98004.84;8380360;28;20417;-68
2023/05/05 04:13:15;;;;;;;4.63;4.23;;;;;;;15.35;40.06;97999.75;8380575;28;20235;-68
2023/05/05 04:17:20;;;;;;;5.23;4.13;;;;;;;15.22;40.60;97999.69;8379705;28;20236;-69
2023/05/05 04:21:23;;;;;;;5.20;4.10;;;;;;;15.16;39.85;97985.25;8380426;28;20257;-68
2023/05/05 04:25:26;;;;;;;4.63;3.70;;;;;;;15.18;39.45;97977.34;8379796;28;20236;-68
2023/05/05 04:29:31;;;;;;;3.87;3.47;;;;;;;15.52;38.54;97991.69;8380049;28;20229;-68
2023/05/05 04:33:35;;;;;;;4.50;4.10;;;;;;;15.14;39.06;97992.34;8379813;28;20236;-68
2023/05/05 04:37:38;;;;;;;4.27;3.30;;;;;;;15.11;38.72;97995.13;8379604;28;20603;-67
2023/05/05 04:41:40;;;;;;;4.13;3.30;;;;;;;14.90;38.39;97992.09;8379546;28;20232;-68
2023/05/05 04:45:52;;;;;;;3.80;3.33;;;;;;;14.98;37.88;97994.22;8379576;28;20229;-68
2023/05/05 04:49:56;;;;;;;4.13;3.33;;;;;;;15.31;38.15;97996.50;8379672;28;20534;-68
2023/05/05 04:53:59;;;;;;;3.90;3.60;;;;;;;14.85;37.95;97996.78;8379227;28;20217;-68
2023/05/05 04:58:02;;;;;;;5.23;3.47;;;;;;;15.23;38.38;98022.22;8378883;28;20512;-68
2023/05/05 05:02:05;;;;;;;3.50;3.17;;;;;;;14.91;38.40;98014.63;8379277;28;20223;-68
2023/05/05 05:06:10;;;;;;;5.87;3.07;;;;;;;15.68;37.09;98037.69;8379065;28;20241;-68
2023/05/05 05:10:12;;;;;;;3.30;3.00;;;;;;;15.93;36.94;98047.41;8378290;28;20243;-68
2023/05/05 05:14:18;;;;;;;3.33;3.03;;;;;;;16.02;36.62;98036.38;8379042;28;20233;-68
2023/05/05 05:18:21;;;;;;;3.67;3.30;;;;;;;15.85;36.63;98034.88;8378182;28;20237;-69
2023/05/05 05:22:25;;;;;;;4.00;2.87;;;;;;;15.17;36.79;98033.91;8378530;28;20418;-69
2023/05/05 05:26:27;;;;;;;5.33;3.10;;;;;;;15.01;36.52;98014.91;8378543;28;20237;-69
2023/05/05 05:30:30;;;;;;;3.10;2.80;;;;;;;15.10;36.31;98034.34;8378242;28;20236;-68
2023/05/05 05:34:33;;;;;;;3.23;2.93;;;;;;;15.31;36.36;98029.59;8378248;28;20232;-69
2023/05/05 05:38:37;;;;;;;2.90;2.60;;;;;;;15.28;36.41;98035.81;8377802;28;20257;-68
2023/05/05 05:42:40;;;;;;;3.27;2.43;;;;;;;15.01;37.13;97981.84;8378008;28;20244;-69
2023/05/05 05:46:44;;;;;;;3.27;2.77;;;;;;;15.40;36.73;98031.59;8377917;28;20236;-69
2023/05/05 05:50:47;;;;;;;4.77;2.73;;;;;;;15.59;36.76;98047.78;8378073;28;20231;-69
2023/05/05 05:54:51;;;;;;;3.87;3.00;;;;;;;15.78;37.11;98047.50;8378227;28;20240;-69
2023/05/05 05:58:54;;;;;;;3.53;3.20;;;;;;;15.62;37.33;98044.16;8377409;28;20299;-69
2023/05/05 06:02:56;;;;;;;4.13;3.00;;;;;;;15.34;38.00;98042.44;8377138;28;20228;-69
2023/05/05 06:06:59;;;;;;;5.47;3.27;;;;;;;16.31;36.62;98046.69;8377374;28;20244;-69
2023/05/05 06:11:04;;;;;;;8.67;3.07;;;;;;;15.78;37.46;98050.09;8377625;28;20472;-69
2023/05/05 06:15:07;;;;;;;5.03;3.23;;;;;;;16.05;37.32;98040.56;8377837;28;20232;-69
2023/05/05 06:19:10;;;;;;;6.13;3.60;;;;;;;16.34;36.24;98039.47;8377194;28;20224;-69
2023/05/05 06:23:12;;;;;;;3.70;3.10;;;;;;;15.89;37.99;98046.78;8377679;28;20232;-68
2023/05/05 06:27:17;;;;;;;7.77;3.07;;;;;;;16.39;38.18;98042.63;8377487;28;20229;-69
2023/05/05 06:31:19;;;;;;;4.40;3.10;;;;;;;16.86;36.25;98036.91;8377605;28;20225;-69
2023/05/05 06:35:23;;;;;;;5.37;3.20;;;;;;;16.89;36.15;98040.16;8377387;28;20247;-69
2023/05/05 06:39:26;;;;;;;6.13;3.90;;;;;;;17.02;36.36;98034.94;8377309;28;20231;-69
2023/05/05 06:43:30;;;;;;;4.10;3.40;;;;;;;17.58;36.34;98042.31;8377946;28;20239;-69
2023/05/05 06:47:33;;;;;;;4.20;3.17;;;;;;;17.59;35.90;98036.13;8377733;28;20539;-70
2023/05/05 06:51:36;;;;;;;3.70;3.40;;;;;;;17.65;36.02;98033.09;8377698;28;20229;-70
2023/05/05 06:55:42;;;;;;;6.03;3.30;;;;;;;17.91;35.79;98018.09;8377437;28;20235;-70
2023/05/05 06:59:47;;;;;;;3.83;3.43;;;;;;;17.50;36.46;98029.78;8377214;28;20224;-69
2023/05/05 07:03:52;;;;;;;3.97;3.57;;;;;;;17.59;36.49;98034.38;8377732;28;20248;-70
2023/05/05 07:07:56;;;;;;;3.53;3.03;;;;;;;17.87;36.55;98032.38;8377563;28;20265;-70
2023/05/05 07:11:59;;;;;;;4.40;3.67;;;;;;;17.98;36.54;98029.81;8377299;28;20230;-70
2023/05/05 07:16:04;;;;;;;4.77;3.50;;;;;;;17.90;36.87;98026.09;8377586;28;20462;-70
2023/05/05 07:20:08;;;;;;;3.57;3.27;;;;;;;18.34;36.34;98030.66;8377120;28;20399;-70
2023/05/05 07:24:11;;;;;;;4.63;3.70;;;;;;;18.75;36.12;98026.69;8377204;28;20252;-69
2023/05/05 07:28:14;;;;;;;4.10;3.70;;;;;;;19.36;35.74;98035.97;8377158;28;20428;-70
2023/05/05 07:32:19;;;;;;;6.53;3.60;;;;;;;19.45;35.24;98043.13;8376772;28;20310;-70
2023/05/05 07:36:21;;;;;;;4.07;3.50;;;;;;;19.57;35.27;98045.72;8381145;28;20236;-70
2023/05/05 07:40:24;;;;;;;4.67;3.40;;;;;;;19.91;34.91;98041.25;8382762;28;20237;-70
2023/05/05 07:44:29;;;;;;;3.93;3.63;;;;;;;19.85;35.67;98037.31;8382431;28;20229;-70
2023/05/05 07:48:33;;;;;;;4.63;3.57;;;;;;;20.37;34.79;98041.88;8382045;28;20247;-69
2023/05/05 07:52:36;;;;;;;7.70;3.93;;;;;;;20.22;35.30;98043.97;8382230;28;20229;-69
2023/05/05 07:56:53;;;;;;;4.60;4.20;;;;;;;20.07;36.00;98048.75;8381879;28;20291;-69
2023/05/05 08:00:55;;;;;;;4.63;3.80;;;;;;;21.08;34.56;98024.44;8381706;28;20534;-70
2023/05/05 08:05:00;;;;;;;4.77;4.30;;;;;;;21.66;34.50;98036.13;8381725;28;20231;-68
2023/05/05 08:09:03;;;;;;;7.10;4.20;;;;;;;21.80;33.97;98043.66;8382043;28;20343;-68
2023/05/05 08:13:06;;;;;;;5.00;4.50;;;;;;;21.77;34.25;98030.72;8381603;28;20225;-70
2023/05/05 08:17:09;;;;;;;5.23;4.73;;;;;;;22.27;34.85;98039.53;8381625;28;20232;-69
2023/05/05 08:21:13;;;;;;;6.70;5.63;;;;;;;22.49;33.88;98039.22;8381438;28;20232;-69
2023/05/05 08:25:16;;;;;;;7.27;6.57;;;;;;;21.98;34.51;98041.16;8381323;28;20225;-69
2023/05/05 08:29:19;;;;;;;5.63;5.10;;;;;;;23.25;33.26;98042.75;8380662;28;20221;-70
2023/05/05 08:33:22;;;;;;;6.43;5.70;;;;;;;23.35;33.76;98049.66;8380735;28;20232;-69
2023/05/05 08:37:26;;;;;;;6.17;5.53;;;;;;;23.65;34.51;98038.94;8381137;28;20233;-69
2023/05/05 08:41:28;;;;;;;6.40;5.83;;;;;;;23.77;34.38;98027.16;8381381;28;20244;-70
2023/05/05 08:45:32;;;;;;;5.87;3.60;;;;;;;23.91;37.13;98039.88;8380406;28;20233;-70
2023/05/05 08:49:40;;;;;;;8.10;6.60;;;;;;;23.85;33.11;98035.19;8380758;28;20463;-69
2023/05/05 08:53:52;;;;;;;5.03;4.10;;;;;;;24.05;35.34;98038.53;8380581;28;20221;-70
2023/05/05 08:57:56;;;;;;;5.43;4.93;;;;;;;24.47;33.91;98034.41;8380645;28;20229;-70
2023/05/05 09:02:04;;;;;;;6.43;5.93;;;;;;;24.19;33.52;98032.69;8380078;28;20241;-69
2023/05/05 09:06:08;;;;;;;8.87;6.53;;;;;;;24.08;33.31;97971.25;8380646;28;20472;-69
2023/05/05 09:10:12;;;;;;;5.70;5.10;;;;;;;24.68;33.64;98034.91;8380518;28;20225;-70
2023/05/05 09:14:15;;;;;;;10.47;7.93;;;;;;;24.17;32.58;98031.19;8380101;28;20231;-69
2023/05/05 09:18:18;;;;;;;7.07;6.00;;;;;;;25.34;33.21;98027.28;8379378;28;20236;-69
2023/05/05 09:22:33;;;;;;;7.30;6.63;;;;;;;25.04;32.23;98029.47;8380362;28;20244;-69
2023/05/05 09:26:38;;;;;;;6.77;5.43;;;;;;;25.31;32.65;98032.94;8379492;28;20248;-67
2023/05/05 09:30:43;;;;;;;8.17;4.50;;;;;;;25.30;33.84;98018.84;8379436;28;20245;-68
2023/05/05 09:34:57;;;;;;;6.67;5.07;;;;;;;25.81;33.36;98021.44;8379406;28;20229;-67
2023/05/05 09:39:06;;;;;;;7.20;6.50;;;;;;;26.01;32.35;98018.50;8379997;28;20229;-69
2023/05/05 09:43:11;;;;;;;9.90;7.47;;;;;;;24.73;33.04;98007.94;8378747;28;20528;-70
2023/05/05 09:47:15;;;;;;;8.53;7.73;;;;;;;24.78;32.80;98009.13;8377100;28;20229;-69
2023/05/05 09:51:31;;;;;;;7.60;6.97;;;;;;;25.12;33.10;98010.13;8378814;28;20251;-70
2023/05/05 09:55:37;;;;;;;7.37;6.67;;;;;;;25.25;32.49;98009.72;8378522;28;20421;-69
2023/05/05 09:59:57;;;;;;;10.07;7.60;;;;;;;25.93;31.85;97992.81;8377694;28;20291;-71
2023/05/05 10:04:02;;;;;;;6.33;5.77;;;;;;;26.35;31.94;97997.13;8377810;28;20347;-70
2023/05/05 10:08:12;;;;;;;7.80;6.70;;;;;;;26.80;31.13;98003.69;8378977;28;20225;-69
2023/05/05 10:12:16;;;;;;;10.57;6.87;;;;;;;26.58;31.67;98010.53;8378660;28;20233;-69
2023/05/05 10:16:20;;;;;;;6.35;5.75;;;;;;;26.96;31.88;98004.66;8378095;28;20229;-71
2023/05/05 10:20:24;;;;;;;6.23;5.73;;;;;;;27.78;32.23;97998.94;8377915;28;20225;-70
2023/05/05 10:24:33;;;;;;;6.95;6.28;;;;;;;27.36;31.15;97994.88;8378062;28;20273;-69
2023/05/05 10:28:47;;;;;;;6.22;5.50;;;;;;;27.52;30.48;97991.31;8377887;28;20233;-69
2023/05/05 10:32:54;;;;;;;7.80;7.20;;;;;;;26.57;30.50;97989.47;8377356;28;20225;-70
2023/05/05 10:37:17;;;;;;;5.03;4.50;;;;;;;27.25;31.71;97993.44;8377329;28;20363;-70
2023/05/05 10:41:20;;;;;;;5.35;4.95;;;;;;;27.59;29.81;97989.63;8377393;28;20244;-71
2023/05/05 10:45:23;;;;;;;5.38;4.80;;;;;;;26.80;31.29;97995.72;8377377;28;20239;-68
2023/05/05 10:49:36;;;;;;;4.75;4.35;;;;;;;24.77;31.82;97736.56;8377769;28;20474;-67
2023/05/05 10:53:44;;;;;;;5.55;5.05;;;;;;;25.72;32.65;97980.00;8378156;28;20410;-68
2023/05/05 10:57:52;;;;;;;5.63;4.85;;;;;;;25.49;34.25;97980.66;8376850;28;20225;-69
2023/05/05 11:01:54;;;;;;;4.57;4.28;;;;;;;26.01;34.07;97973.41;8377205;28;20232;-69
2023/05/05 11:06:16;;;;;;;5.97;4.60;;;;;;;26.05;34.42;97967.63;8378015;28;20251;-69
2023/05/05 11:10:22;;;;;;;5.13;4.00;;;;;;;26.23;34.28;97948.03;8381387;28;20538;-69
2023/05/05 11:14:26;;;;;;;4.60;4.20;;;;;;;26.99;33.29;97956.47;8383762;28;20229;-69
2023/05/05 11:18:34;;;;;;;3.92;3.63;;;;;;;26.85;33.33;97942.09;8383263;28;20409;-69
2023/05/05 11:23:11;;;;;;;4.95;4.55;;;;;;;26.46;34.86;97943.66;8383621;28;20265;-70
2023/05/05 11:27:18;;;;;;;4.97;4.50;;;;;;;26.33;35.75;97936.25;8384345;28;20236;-68
2023/05/05 11:31:21;;;;;;;4.93;4.43;;;;;;;26.59;35.51;97931.69;8383359;28;20229;-70
2023/05/05 11:35:56;;;;;;;4.35;4.05;;;;;;;26.18;36.74;97932.63;8383700;28;20267;-70
2023/05/05 11:40:04;;;;;;;5.40;5.00;;;;;;;25.84;36.58;97924.81;8384273;28;20493;-69
2023/05/05 11:44:13;;;;;;;5.13;4.73;;;;;;;25.43;36.42;97925.59;8384103;28;20476;-70
2023/05/05 11:48:25;;;;;;;5.43;4.53;;;;;;;25.17;36.88;97867.41;8383899;28;20233;-69
2023/05/05 11:52:29;;;;;;;4.20;3.90;;;;;;;25.48;36.68;97925.13;8383587;28;20229;-71
2023/05/05 11:56:32;;;;;;;4.67;3.77;;;;;;;25.15;37.04;97914.41;8381886;28;20236;-73
2023/05/05 12:00:36;;;;;;;4.00;3.60;;;;;;;24.85;36.58;97898.13;8383857;28;20229;-70
2023/05/05 12:04:39;;;;;;;4.47;3.53;;;;;;;24.84;37.27;97908.84;8383149;28;20236;-69
2023/05/05 12:08:42;;;;;;;4.23;3.80;;;;;;;24.59;37.66;97904.28;8383094;28;20489;-69
2023/05/05 12:12:45;;;;;;;6.37;3.63;;;;;;;24.57;37.84;97911.56;8382907;28;20221;-70
2023/05/05 12:16:56;;;;;;;3.77;3.20;;;;;;;24.26;38.84;97892.69;8382960;28;20475;-69
2023/05/05 12:20:59;;;;;;;4.00;3.70;;;;;;;24.25;39.48;97920.09;8381776;28;20241;-70
2023/05/05 12:25:06;;;;;;;4.63;4.03;;;;;;;24.13;39.35;97914.25;8382011;28;20232;-69
2023/05/05 12:29:09;;;;;;;4.37;3.97;;;;;;;23.95;40.77;97929.31;8382009;28;20403;-69
2023/05/05 12:33:13;;;;;;;3.17;2.97;;;;;;;24.01;41.02;97923.44;8381736;28;20221;-70
2023/05/05 12:37:20;;;;;;;3.33;3.00;;;;;;;24.13;41.04;97929.31;8381485;28;20239;-69
2023/05/05 12:41:26;;;;;;;3.20;2.90;;;;;;;23.77;40.51;97922.22;8380799;28;20224;-70
2023/05/05 12:45:32;;;;;;;3.20;2.93;;;;;;;23.97;40.48;97922.06;8380309;28;20237;-70
2023/05/05 12:49:47;;;;;;;3.40;2.77;;;;;;;24.18;41.79;97917.28;8380624;28;20244;-71
2023/05/05 12:54:02;;;;;;;3.77;3.47;;;;;;;23.98;40.71;97918.44;8381273;28;20221;-70
2023/05/05 12:58:06;;;;;;;4.00;2.53;;;;;;;24.23;40.32;97921.25;8381090;28;20225;-70
2023/05/05 13:02:09;;;;;;;4.53;2.47;;;;;;;24.24;40.26;97918.47;8380645;28;20230;-69
2023/05/05 13:06:23;;;;;;;3.20;2.63;;;;;;;24.32;39.57;97915.03;8380889;28;20650;-69
2023/05/05 13:10:26;;;;;;;4.67;2.60;;;;;;;24.35;38.28;97917.34;8379978;28;20229;-71
2023/05/05 13:14:30;;;;;;;2.40;2.20;;;;;;;23.47;37.45;97823.00;8380099;28;20229;-68
2023/05/05 13:18:43;;;;;;;4.50;2.10;;;;;;;23.77;36.33;97910.81;8379833;28;20294;-70
2023/05/05 13:22:47;;;;;;;2.35;1.70;;;;;;;23.63;35.83;97906.91;8380133;28;20469;-69
2023/05/05 13:26:50;;;;;;;1.87;1.63;;;;;;;23.68;36.19;97901.97;8380280;28;20240;-70
2023/05/05 13:30:53;;;;;;;2.20;2.00;;;;;;;23.46;36.21;97903.28;8379771;28;20225;-69
2023/05/05 13:34:56;;;;;;;3.73;1.70;;;;;;;23.78;36.83;97908.06;8379308;28;20228;-70
2023/05/05 13:39:01;;;;;;;2.97;2.30;;;;;;;23.43;36.88;97908.84;8379689;28;20432;-68
2023/05/05 13:43:03;;;;;;;2.03;1.80;;;;;;;23.56;36.50;97892.63;8379464;28;20229;-69
2023/05/05 13:47:07;;;;;;;2.03;1.60;;;;;;;23.52;35.98;97899.22;8378986;28;20270;-69
2023/05/05 13:51:10;;;;;;;3.30;1.80;;;;;;;23.49;36.29;97865.97;8378296;28;20229;-70
2023/05/05 13:55:14;;;;;;;2.33;1.70;;;;;;;23.80;34.37;97877.00;8377295;28;20405;-69
2023/05/05 13:59:21;;;;;;;2.07;1.67;;;;;;;23.51;35.22;97877.22;8378222;28;20233;-70
2023/05/05 14:03:23;;;;;;;3.53;1.50;;;;;;;23.44;35.21;97868.25;8377893;28;20237;-70
2023/05/05 14:07:27;;;;;;;1.60;1.50;;;;;;;23.38;35.18;97860.91;8378141;28;20433;-69
2023/05/05 14:11:31;;;;;;;2.33;1.50;;;;;;;23.32;35.30;97864.16;8378707;28;20229;-69
2023/05/05 14:15:35;;;;;;;1.70;1.60;;;;;;;23.11;37.10;97832.78;8378202;28;20225;-70
2023/05/05 14:19:43;;;;;;;2.03;1.60;;;;;;;23.23;37.84;97856.19;8377907;28;20275;-70
2023/05/05 14:23:46;;;;;;;2.00;1.80;;;;;;;23.15;38.86;97852.59;8378467;28;20229;-69
2023/05/05 14:27:50;;;;;;;2.13;1.77;;;;;;;23.11;38.34;97848.63;8378268;28;20244;-69
2023/05/05 14:31:53;;;;;;;2.37;1.97;;;;;;;23.04;38.30;97851.03;8377993;28;20233;-70
2023/05/05 14:35:56;;;;;;;3.13;1.87;;;;;;;22.77;39.14;97823.66;8377895;28;20236;-70
2023/05/05 14:39:59;;;;;;;1.80;1.70;;;;;;;22.87;39.36;97838.63;8377796;28;20224;-70
2023/05/05 14:44:03;;;;;;;2.73;1.77;;;;;;;22.97;37.70;97849.94;8384019;28;20417;-70
2023/05/05 14:48:06;;;;;;;2.73;1.50;;;;;;;23.25;37.87;97856.03;8389172;28;20241;-70
2023/05/05 14:52:15;;;;;;;1.83;1.63;;;;;;;23.31;38.45;97838.75;8387434;28;20418;-70
2023/05/05 14:56:20;;;;;;;2.30;2.10;;;;;;;23.42;38.36;97846.44;8388557;28;20225;-72
2023/05/05 15:00:25;;;;;;;2.30;1.67;;;;;;;23.29;36.99;97838.88;8388685;28;20233;-70
2023/05/05 15:04:28;;;;;;;3.17;2.00;;;;;;;23.35;37.19;97843.56;8388346;28;20447;-71
2023/05/05 15:08:31;;;;;;;3.10;1.60;;;;;;;23.52;36.83;97843.72;8388496;28;20294;-69
2023/05/05 15:12:34;;;;;;;2.60;1.70;;;;;;;23.42;36.81;97835.88;8388384;28;20229;-69
2023/05/05 15:16:38;;;;;;;1.80;1.50;;;;;;;23.40;37.49;97836.03;8388207;28;20233;-69
2023/05/05 15:20:41;;;;;;;2.07;1.70;;;;;;;23.26;37.43;97825.16;8387499;28;20229;-69
2023/05/05 15:24:44;;;;;;;3.23;1.80;;;;;;;22.90;38.32;97836.50;8388002;28;20236;-69
2023/05/05 15:28:47;;;;;;;1.60;1.50;;;;;;;22.92;38.53;97823.97;8387922;28;20662;-69
2023/05/05 15:32:53;;;;;;;2.17;1.73;;;;;;;22.97;38.49;97815.63;8387955;28;20478;-69
2023/05/05 15:36:56;;;;;;;1.83;1.73;;;;;;;23.03;38.51;97825.59;8387579;28;20228;-69
2023/05/05 15:40:59;;;;;;;2.43;1.70;;;;;;;23.29;38.25;97817.75;8387723;28;20237;-69
2023/05/05 15:45:02;;;;;;;1.93;1.70;;;;;;;23.39;37.55;97812.38;8388094;28;20225;-70
2023/05/05 15:49:06;;;;;;;2.20;2.00;;;;;;;23.15;37.75;97813.84;8387798;28;20236;-70
2023/05/05 15:53:09;;;;;;;1.90;1.80;;;;;;;23.14;37.62;97809.53;8387694;28;20228;-70
2023/05/05 15:57:12;;;;;;;2.30;2.10;;;;;;;23.20;36.97;97808.91;8382483;28;20556;-70
2023/05/05 16:01:15;;;;;;;2.17;1.97;;;;;;;23.11;37.68;97803.72;8382262;28;20347;-70
2023/05/05 16:05:19;;;;;;;4.43;2.00;;;;;;;23.04;37.16;97811.44;8381358;28;20296;-71
2023/05/05 16:09:24;;;;;;;2.67;2.00;;;;;;;23.02;39.17;97826.56;8381826;28;20240;-70
2023/05/05 16:13:27;;;;;;;1.77;1.53;;;;;;;22.93;38.96;97808.97;8382075;28;20240;-70
2023/05/05 16:17:30;;;;;;;2.20;1.90;;;;;;;22.72;40.49;97815.34;8380619;28;20301;-70
2023/05/05 16:21:34;;;;;;;2.70;2.00;;;;;;;22.75;40.80;97815.06;8382070;28;20486;-70
2023/05/05 16:25:37;;;;;;;2.20;1.97;;;;;;;22.27;42.66;97810.03;8381696;28;22642;-70
2023/05/05 16:29:40;;;;;;;2.67;2.10;;;;;;;22.75;42.51;97807.16;8381567;28;20240;-70
2023/05/05 16:33:43;;;;;;;3.27;2.60;;;;;;;22.65;42.62;97801.91;8381340;28;20232;-71
2023/05/05 16:37:47;;;;;;;2.30;2.10;;;;;;;22.80;42.57;97799.59;8381047;28;20228;-70
2023/05/05 16:41:52;;;;;;;2.93;2.70;;;;;;;22.59;43.10;97809.59;8380488;28;20229;-69
2023/05/05 16:45:55;;;;;;;2.10;1.90;;;;;;;22.50;43.40;97792.84;8381363;28;20417;-70
2023/05/05 16:49:57;;;;;;;3.30;2.30;;;;;;;22.21;44.34;97803.50;8380603;28;20236;-69
2023/05/05 16:54:02;;;;;;;2.60;2.40;;;;;;;22.01;45.13;97798.31;8380452;28;20236;-70
2023/05/05 16:58:04;;;;;;;2.40;2.20;;;;;;;22.02;45.68;97804.41;8380980;28;20534;-71
2023/05/05 17:02:07;;;;;;;3.90;3.00;;;;;;;21.78;47.71;97804.88;8381198;28;20602;-70
2023/05/05 17:06:11;;;;;;;2.97;2.67;;;;;;;21.55;48.59;97799.13;8379533;28;20229;-70
2023/05/05 17:10:18;;;;;;;3.10;2.40;;;;;;;21.82;47.83;97793.94;8380864;28;20272;-69
2023/05/05 17:14:20;;;;;;;3.90;2.50;;;;;;;21.74;48.81;97795.63;8380422;28;20221;-71
2023/05/05 17:18:24;;;;;;;3.60;3.30;;;;;;;21.64;48.68;97785.09;8380372;28;20233;-70
2023/05/05 17:22:27;;;;;;;3.30;2.40;;;;;;;21.41;47.72;97768.75;8380234;28;20300;-71
2023/05/05 17:26:31;;;;;;;4.07;2.50;;;;;;;21.36;47.08;97774.47;8380159;28;20251;-71
2023/05/05 17:30:37;;;;;;;3.27;2.97;;;;;;;21.53;46.38;97772.09;8380083;28;20407;-70
2023/05/05 17:34:40;;;;;;;2.87;2.60;;;;;;;21.46;46.62;97772.66;8379906;28;20288;-70
2023/05/05 17:38:43;;;;;;;3.27;2.57;;;;;;;21.54;46.20;97777.22;8379687;28;20225;-70
2023/05/05 17:42:47;;;;;;;2.60;2.40;;;;;;;21.49;45.90;97768.91;8379509;28;20539;-70
2023/05/05 17:46:50;;;;;;;2.60;2.40;;;;;;;21.55;45.50;97772.78;8379437;28;20232;-70
2023/05/05 17:50:53;;;;;;;2.90;2.70;;;;;;;21.43;45.57;97772.06;8379024;28;20233;-70
2023/05/05 17:54:56;;;;;;;4.17;3.00;;;;;;;21.45;45.64;97773.63;8378871;28;20228;-70
2023/05/05 17:59:01;;;;;;;5.37;3.37;;;;;;;21.32;46.08;97772.22;8379031;28;20228;-70
2023/05/05 18:03:04;;;;;;;5.13;4.63;;;;;;;21.40;45.85;97760.03;8379117;28;20228;-70
2023/05/05 18:07:07;;;;;;;5.70;4.33;;;;;;;21.45;45.99;97770.16;8378520;28;20471;-71
2023/05/05 18:11:14;;;;;;;4.20;3.80;;;;;;;21.32;46.34;97756.44;8378163;28;20239;-71
2023/05/05 18:15:18;;;;;;;4.20;3.20;;;;;;;21.37;46.91;97760.28;8379871;28;20223;-70
2023/05/05 18:19:23;;;;;;;3.53;3.23;;;;;;;21.39;46.54;97758.34;8380299;28;20236;-70
2023/05/05 18:23:26;;;;;;;3.70;3.40;;;;;;;21.37;46.68;97762.13;8380697;28;20236;-70
2023/05/05 18:27:31;;;;;;;3.90;3.60;;;;;;;21.40;47.04;97778.47;8380315;28;20233;-69
2023/05/05 18:31:35;;;;;;;5.87;4.90;;;;;;;21.26;47.94;97773.63;8379091;28;20328;-70
2023/05/05 18:35:38;;;;;;;4.10;3.23;;;;;;;21.22;48.30;97778.31;8380057;28;20241;-70
2023/05/05 18:39:41;;;;;;;3.50;3.20;;;;;;;21.17;49.33;97779.72;8380479;28;20232;-70
2023/05/05 18:43:45;;;;;;;3.07;2.87;;;;;;;21.17;49.98;97791.09;8378869;28;20292;-70
2023/05/05 18:47:50;;;;;;;6.53;3.83;;;;;;;21.12;50.10;97787.22;8383357;28;20327;-70
2023/05/05 18:51:54;;;;;;;4.20;3.80;;;;;;;21.03;50.42;97792.31;8377204;28;20372;-69
2023/05/05 18:55:57;;;;;;;19.63;16.97;;;;;;;21.00;50.68;97804.94;8376699;28;20403;-71
2023/05/05 19:00:00;;;;;;;5.90;5.30;;;;;;;20.97;50.81;97823.66;8377039;28;20225;-70
2023/05/05 19:04:04;;;;;;;6.23;4.40;;;;;;;20.89;50.45;97824.34;8377160;28;20332;-69
2023/05/05 19:08:24;;;;;;;4.10;3.70;;;;;;;20.94;50.69;97852.88;8376967;28;20235;-70
2023/05/05 19:12:27;;;;;;;4.00;3.57;;;;;;;20.95;51.02;97863.25;8377168;28;20252;-70
2023/05/05 19:16:31;;;;;;;4.77;3.10;;;;;;;20.43;50.95;97870.44;8378353;28;20365;-70